createdAt,value
2022-12-15T00:02:19.879Z,97031.41
2022-12-15T00:05:06.771Z,97015.88
2022-12-15T00:07:53.149Z,97021.13
2022-12-15T00:10:39.359Z,97030.16
2022-12-15T00:13:32.859Z,97055.97
2022-12-15T00:16:18.960Z,97060.22
2022-12-15T00:19:04.211Z,97054.34
2022-12-15T00:21:50.204Z,97064.06
2022-12-15T00:24:35.949Z,97069.69
2022-12-15T00:27:22.285Z,97071.16
2022-12-15T00:30:08.089Z,97080.88
2022-12-15T00:32:53.696Z,97072.34
2022-12-15T00:35:38.984Z,97076.88
2022-12-15T00:38:29.215Z,97077.91
2022-12-15T00:40:59.759Z,97077.13
2022-12-15T00:43:29.670Z,97067.94
2022-12-15T00:46:15.916Z,97075.91
2022-12-15T00:48:43.484Z,97081.09
2022-12-15T00:51:10.788Z,97080.72
2022-12-15T00:53:56.973Z,97086.50
2022-12-15T00:56:43.289Z,97077.44
2022-12-15T00:59:31.037Z,97080.66
2022-12-15T01:02:16.840Z,97077.16
2022-12-15T01:05:02.667Z,97096.28
2022-12-15T01:07:49.522Z,97097.09
2022-12-15T01:10:37.453Z,97103.16
2022-12-15T01:13:23.830Z,97108.34
2022-12-15T01:16:09.818Z,97106.44
2022-12-15T01:18:55.478Z,97119.84
2022-12-15T01:21:25.056Z,97120.66
2022-12-15T01:23:53.204Z,97122.44
2022-12-15T01:26:20.302Z,97130.22
2022-12-15T01:28:47.210Z,97138.75
2022-12-15T01:31:14.761Z,97128.06
2022-12-15T01:33:43.489Z,97135.72
2022-12-15T01:36:11.509Z,97133.66
2022-12-15T01:38:38.789Z,97136.25
2022-12-15T01:41:09.804Z,97141.16
2022-12-15T01:43:40.139Z,97136.75
2022-12-15T01:46:11.031Z,97142.47
2022-12-15T01:48:57.561Z,97144.66
2022-12-15T01:51:32.641Z,97148.94
2022-12-15T01:54:18.408Z,97151.25
2022-12-15T01:56:56.973Z,97150.47
2022-12-15T01:59:34.102Z,97138.84
2022-12-15T02:02:02.313Z,97153.50
2022-12-15T02:04:30.380Z,97148.97
2022-12-15T02:06:57.772Z,97142.81
2022-12-15T02:09:27.096Z,97138.13
2022-12-15T02:12:05.831Z,97133.75
2022-12-15T02:15:19.532Z,97136.34
2022-12-15T02:18:13.099Z,97143.84
2022-12-15T02:21:01.543Z,97145.63
2022-12-15T02:24:00.317Z,97148.22
2022-12-15T02:26:55.517Z,97143.28
2022-12-15T02:29:48.544Z,97155.59
2022-12-15T02:32:22.145Z,97156.28
2022-12-15T02:35:03.951Z,97163.97
2022-12-15T02:37:34.958Z,97172.72
2022-12-15T02:40:03.455Z,97175.59
2022-12-15T02:42:32.279Z,97169.31
2022-12-15T02:45:10.960Z,97160.28
2022-12-15T02:47:48.603Z,97157.19
2022-12-15T02:50:51.388Z,97152.59
2022-12-15T02:53:50.877Z,97156.97
2022-12-15T02:57:00.004Z,97150.81
2022-12-15T02:59:55.618Z,97158.75
2022-12-15T03:02:26.690Z,97164.91
2022-12-15T03:04:54.292Z,97165.22
2022-12-15T03:07:27.750Z,97179.97
2022-12-15T03:10:01.696Z,97175.56
2022-12-15T03:12:29.068Z,97168.34
2022-12-15T03:14:56.038Z,97173.56
2022-12-15T03:17:23.200Z,97173.56
2022-12-15T03:19:50.141Z,97169.59
2022-12-15T03:22:17.225Z,97175.91
2022-12-15T03:24:44.623Z,97176.97
2022-12-15T03:27:12.251Z,97177.00
2022-12-15T03:29:39.219Z,97175.06
2022-12-15T03:32:07.064Z,97186.00
2022-12-15T03:34:34.065Z,97180.50
2022-12-15T03:37:01.105Z,97182.72
2022-12-15T03:39:28.169Z,97194.59
2022-12-15T03:41:55.143Z,97199.28
2022-12-15T03:44:46.192Z,97202.94
2022-12-15T03:47:13.589Z,97207.06
2022-12-15T03:50:07.530Z,97198.31
2022-12-15T03:52:34.539Z,97198.31
2022-12-15T03:55:02.181Z,97198.03
2022-12-15T03:57:29.160Z,97202.69
2022-12-15T03:59:56.551Z,97206.41
2022-12-15T04:02:23.768Z,97214.31
2022-12-15T04:04:51.358Z,97221.00
2022-12-15T04:07:18.736Z,97217.16
2022-12-15T04:09:45.686Z,97208.69
2022-12-15T04:12:12.955Z,97214.97
2022-12-15T04:14:42.518Z,97236.16
2022-12-15T04:17:12.827Z,97239.03
2022-12-15T04:19:58.139Z,97242.88
2022-12-15T04:22:25.538Z,97237.16
2022-12-15T04:25:11.388Z,97238.66
2022-12-15T04:28:01.494Z,97235.34
2022-12-15T04:30:48.896Z,97236.06
2022-12-15T04:33:35.690Z,97244.38
2022-12-15T04:36:21.777Z,97245.34
2022-12-15T04:39:07.698Z,97246.97
2022-12-15T04:41:53.686Z,97244.78
2022-12-15T04:44:39.475Z,97246.44
2022-12-15T04:47:24.954Z,97249.31
2022-12-15T04:50:10.668Z,97243.13
2022-12-15T04:52:56.588Z,97226.72
2022-12-15T04:55:41.895Z,97232.22
2022-12-15T04:58:28.110Z,97220.03
2022-12-15T05:01:17.113Z,97242.59
2022-12-15T05:04:03.066Z,97236.06
2022-12-15T05:06:48.861Z,97234.00
2022-12-15T05:09:34.281Z,97228.38
2022-12-15T05:12:20.211Z,97233.44
2022-12-15T05:15:05.832Z,97228.94
2022-12-15T05:17:51.754Z,97235.75
2022-12-15T05:20:37.570Z,97233.56
2022-12-15T05:23:23.624Z,97244.94
2022-12-15T05:26:09.000Z,97242.88
2022-12-15T05:28:54.918Z,97245.78
2022-12-15T05:31:40.094Z,97245.91
2022-12-15T05:34:07.570Z,97245.09
2022-12-15T05:36:34.591Z,97255.59
2022-12-15T05:39:01.621Z,97251.66
2022-12-15T05:41:29.001Z,97249.72
2022-12-15T05:43:55.981Z,97243.16
2022-12-15T05:46:23.094Z,97245.47
2022-12-15T05:48:50.495Z,97243.16
2022-12-15T05:51:17.964Z,97253.50
2022-12-15T05:53:44.924Z,97245.53
2022-12-15T05:56:14.945Z,97254.09
2022-12-15T05:58:45.325Z,97255.06
2022-12-15T06:01:19.349Z,97259.97
2022-12-15T06:03:46.473Z,97251.66
2022-12-15T06:06:17.125Z,97246.44
2022-12-15T06:08:44.661Z,97240.94
2022-12-15T06:11:17.186Z,97246.88
2022-12-15T06:13:44.809Z,97254.09
2022-12-15T06:16:18.952Z,97258.47
2022-12-15T06:18:50.532Z,97255.44
2022-12-15T06:21:26.988Z,97260.50
2022-12-15T06:23:56.559Z,97261.47
2022-12-15T06:26:27.641Z,97268.16
2022-12-15T06:28:57.773Z,97273.38
2022-12-15T06:31:26.013Z,97282.25
2022-12-15T06:34:00.981Z,97284.72
2022-12-15T06:36:30.852Z,97284.44
2022-12-15T06:39:06.828Z,97290.69
2022-12-15T06:41:34.789Z,97294.03
2022-12-15T06:44:02.277Z,97291.16
2022-12-15T06:46:32.101Z,97290.88
2022-12-15T06:48:59.566Z,97281.97
2022-12-15T06:51:27.894Z,97283.22
2022-12-15T06:53:56.148Z,97286.06
2022-12-15T06:56:34.042Z,97286.34
2022-12-15T06:59:03.532Z,97275.16
2022-12-15T07:01:31.689Z,97286.50
2022-12-15T07:04:01.452Z,97295.94
2022-12-15T07:06:36.308Z,97288.69
2022-12-15T07:09:07.464Z,97279.81
2022-12-15T07:11:35.170Z,97287.03
2022-12-15T07:14:03.137Z,97274.34
2022-12-15T07:16:31.137Z,97275.69
2022-12-15T07:18:58.339Z,97277.88
2022-12-15T07:21:25.312Z,97265.56
2022-12-15T07:23:55.205Z,97263.94
2022-12-15T07:26:24.322Z,97280.91
2022-12-15T07:28:52.956Z,97278.03
2022-12-15T07:31:20.032Z,97278.44
2022-12-15T07:33:48.493Z,97278.56
2022-12-15T07:36:16.408Z,97281.03
2022-12-15T07:38:50.019Z,97284.19
2022-12-15T07:41:19.884Z,97292.91
2022-12-15T07:43:48.314Z,97285.53
2022-12-15T07:46:16.645Z,97287.19
2022-12-15T07:48:50.706Z,97289.75
2022-12-15T07:51:20.367Z,97299.22
2022-12-15T07:53:50.068Z,97298.41
2022-12-15T07:56:17.783Z,97300.06
2022-12-15T07:58:45.002Z,97299.63
2022-12-15T08:01:14.011Z,97300.31
2022-12-15T08:03:41.744Z,97300.44
2022-12-15T08:06:11.946Z,97308.09
2022-12-15T08:08:40.300Z,97317.56
2022-12-15T08:11:10.331Z,97316.59
2022-12-15T08:14:01.908Z,97322.88
2022-12-15T08:16:26.467Z,97318.63
2022-12-15T08:18:53.895Z,97329.31
2022-12-15T08:21:20.975Z,97325.75
2022-12-15T08:23:48.449Z,97343.13
2022-12-15T08:26:18.008Z,97346.94
2022-12-15T08:28:45.961Z,97358.59
2022-12-15T08:31:20.659Z,97361.56
2022-12-15T08:33:49.279Z,97371.44
2022-12-15T08:36:18.532Z,97375.13
2022-12-15T08:38:46.395Z,97372.38
2022-12-15T08:41:29.051Z,97372.25
2022-12-15T08:43:58.628Z,97359.25
2022-12-15T08:46:34.132Z,97353.13
2022-12-15T08:49:03.084Z,97351.47
2022-12-15T08:51:32.714Z,97346.16
2022-12-15T08:54:00.761Z,97346.56
2022-12-15T08:56:29.041Z,97344.06
2022-12-15T08:59:01.713Z,97332.47
2022-12-15T09:01:32.179Z,97333.97
2022-12-15T09:04:01.424Z,97342.72
2022-12-15T09:06:33.400Z,97348.16
2022-12-15T09:09:07.303Z,97352.25
2022-12-15T09:11:35.217Z,97367.19
2022-12-15T09:14:02.583Z,97365.00
2022-12-15T09:16:30.191Z,97365.00
2022-12-15T09:18:59.646Z,97352.69
2022-12-15T09:21:29.469Z,97351.22
2022-12-15T09:24:01.839Z,97360.22
2022-12-15T09:26:33.370Z,97356.13
2022-12-15T09:29:02.000Z,97360.09
2022-12-15T09:31:37.365Z,97357.63
2022-12-15T09:34:04.772Z,97359.94
2022-12-15T09:36:33.019Z,97347.91
2022-12-15T09:39:02.330Z,97356.25
2022-12-15T09:41:35.082Z,97344.72
2022-12-15T09:44:20.648Z,97335.53
2022-12-15T09:47:34.669Z,97322.66
2022-12-15T09:50:06.357Z,97321.13
2022-12-15T09:52:53.689Z,97325.47
2022-12-15T09:55:32.997Z,97325.38
2022-12-15T09:58:18.100Z,97334.88
2022-12-15T10:00:56.953Z,97322.47
2022-12-15T10:03:36.501Z,97316.50
2022-12-15T10:06:16.442Z,97312.75
2022-12-15T10:08:56.398Z,97315.22
2022-12-15T10:11:38.901Z,97315.84
2022-12-15T10:14:22.221Z,97331.56
2022-12-15T10:17:03.108Z,97334.66
2022-12-15T10:19:50.026Z,97347.28
2022-12-15T10:22:27.729Z,97342.81
2022-12-15T10:25:11.446Z,97346.66
2022-12-15T10:28:18.979Z,97349.50
2022-12-15T10:31:02.376Z,97356.13
2022-12-15T10:33:38.414Z,97363.50
2022-12-15T10:36:12.024Z,97366.25
2022-12-15T10:38:43.562Z,97361.03
2022-12-15T10:41:24.033Z,97348.28
2022-12-15T10:43:53.785Z,97334.72
2022-12-15T10:46:28.117Z,97329.53
2022-12-15T10:49:23.227Z,97316.53
2022-12-15T10:51:57.273Z,97305.72
2022-12-15T10:54:35.672Z,97302.47
2022-12-15T10:57:31.468Z,97306.16
2022-12-15T11:00:13.585Z,97296.09
2022-12-15T11:02:42.271Z,97282.50
2022-12-15T11:05:15.695Z,97273.91
2022-12-15T11:07:50.935Z,97268.31
2022-12-15T11:10:50.278Z,97270.19
2022-12-15T11:13:23.520Z,97261.50
2022-12-15T11:15:56.473Z,97258.97
2022-12-15T11:18:38.039Z,97254.75
2022-12-15T11:21:12.689Z,97245.94
2022-12-15T11:24:11.993Z,97249.25
2022-12-15T11:27:19.786Z,97257.25
2022-12-15T11:30:14.792Z,97253.41
2022-12-15T11:32:47.165Z,97254.28
2022-12-15T11:35:25.869Z,97270.88
2022-12-15T11:38:21.993Z,97277.28
2022-12-15T11:40:50.482Z,97277.50
2022-12-15T11:44:06.463Z,97271.06
2022-12-15T11:46:52.864Z,97277.31
2022-12-15T11:49:41.478Z,97275.13
2022-12-15T11:52:54.597Z,97271.53
2022-12-15T11:55:30.405Z,97259.09
2022-12-15T11:58:32.651Z,97255.19
2022-12-15T12:01:33.053Z,97246.66
2022-12-15T12:04:30.725Z,97243.22
2022-12-15T12:07:16.466Z,97237.78
2022-12-15T12:10:27.392Z,97232.31
2022-12-15T12:13:30.592Z,97231.00
2022-12-15T12:16:34.700Z,97213.47
2022-12-15T12:19:06.675Z,97199.22
2022-12-15T12:21:51.273Z,97200.72
2022-12-15T12:24:51.165Z,97190.28
2022-12-15T12:27:48.739Z,97185.97
2022-12-15T12:30:21.640Z,97177.38
2022-12-15T12:33:00.231Z,97166.44
2022-12-15T12:35:46.967Z,97172.09
2022-12-15T12:38:30.047Z,97159.63
2022-12-15T12:41:13.740Z,97166.94
2022-12-15T12:43:50.174Z,97170.38
2022-12-15T12:46:27.655Z,97159.09
2022-12-15T12:49:11.944Z,97157.38
2022-12-15T12:51:49.646Z,97160.75
2022-12-15T12:54:41.901Z,97153.88
2022-12-15T12:57:11.830Z,97149.94
2022-12-15T12:59:51.733Z,97145.88
2022-12-15T13:02:21.642Z,97142.69
2022-12-15T13:05:20.708Z,97143.41
2022-12-15T13:08:17.259Z,97140.63
2022-12-15T13:10:50.846Z,97125.78
2022-12-15T13:13:30.187Z,97131.09
2022-12-15T13:16:25.951Z,97137.56
2022-12-15T13:18:58.621Z,97125.44
2022-12-15T13:21:44.250Z,97126.34
2022-12-15T13:24:41.710Z,97131.69
2022-12-15T13:27:11.970Z,97136.09
2022-12-15T13:30:13.217Z,97127.47
2022-12-15T13:32:44.104Z,97119.00
2022-12-15T13:35:12.307Z,97119.56
2022-12-15T13:38:07.323Z,97123.41
2022-12-15T13:40:37.960Z,97119.69
2022-12-15T13:43:05.204Z,97112.31
2022-12-15T13:45:52.233Z,97107.47
2022-12-15T13:48:38.087Z,97091.59
2022-12-15T13:51:30.077Z,97081.72
2022-12-15T13:54:04.088Z,97075.09
2022-12-15T13:56:50.752Z,97070.97
2022-12-15T13:59:37.751Z,97080.84
2022-12-15T14:02:34.321Z,97087.47
2022-12-15T14:05:22.930Z,97091.31
2022-12-15T14:07:58.089Z,97090.47
2022-12-15T14:10:44.395Z,97091.78
2022-12-15T14:13:18.508Z,97096.63
2022-12-15T14:15:56.670Z,97091.56
2022-12-15T14:18:25.929Z,97092.69
2022-12-15T14:20:53.379Z,97096.69
2022-12-15T14:23:40.520Z,97097.06
2022-12-15T14:26:13.523Z,97101.53
2022-12-15T14:28:45.468Z,97091.31
2022-12-15T14:31:20.409Z,97096.97
2022-12-15T14:33:51.515Z,97095.84
2022-12-15T14:36:20.924Z,97098.16
2022-12-15T14:38:55.420Z,97090.72
2022-12-15T14:41:33.602Z,97101.59
2022-12-15T14:44:36.222Z,97104.56
2022-12-15T14:47:00.566Z,97098.94
2022-12-15T14:49:32.591Z,97117.41
2022-12-15T14:52:05.942Z,97109.34
2022-12-15T14:54:38.303Z,97113.81
2022-12-15T14:57:15.662Z,97113.47
2022-12-15T14:59:45.797Z,97109.16
2022-12-15T15:02:30.125Z,97116.16
2022-12-15T15:05:07.740Z,97120.06
2022-12-15T15:07:38.032Z,97112.06
2022-12-15T15:10:28.642Z,97107.69
2022-12-15T15:12:56.161Z,97110.06
2022-12-15T15:15:26.809Z,97107.19
2022-12-15T15:18:00.359Z,97116.22
2022-12-15T15:20:30.656Z,97117.59
2022-12-15T15:23:18.492Z,97114.56
2022-12-15T15:25:52.464Z,97108.94
2022-12-15T15:28:19.199Z,97104.94
2022-12-15T15:30:57.834Z,97103.41
2022-12-15T15:33:26.461Z,97110.22
2022-12-15T15:35:57.796Z,97113.09
2022-12-15T15:38:33.332Z,97106.94
2022-12-15T15:41:14.354Z,97111.63
2022-12-15T15:43:41.804Z,97116.41
2022-12-15T15:46:14.872Z,97116.69
2022-12-15T15:48:51.140Z,97121.41
2022-12-15T15:51:18.944Z,97113.22
2022-12-15T15:53:46.559Z,97111.28
2022-12-15T15:56:16.874Z,97120.72
2022-12-15T15:58:44.308Z,97129.63
2022-12-15T16:01:13.533Z,97126.56
2022-12-15T16:03:41.748Z,97134.31
2022-12-15T16:06:18.713Z,97126.06
2022-12-15T16:08:49.504Z,97138.06
2022-12-15T16:11:16.737Z,97123.59
2022-12-15T16:13:47.697Z,97123.84
2022-12-15T16:16:20.374Z,97116.78
2022-12-15T16:18:47.877Z,97107.78
2022-12-15T16:21:15.839Z,97112.13
2022-12-15T16:23:46.372Z,97110.94
2022-12-15T16:26:28.031Z,97105.63
2022-12-15T16:28:55.326Z,97107.94
2022-12-15T16:31:41.823Z,97106.75
2022-12-15T16:34:09.128Z,97106.00
2022-12-15T16:36:36.282Z,97100.75
2022-12-15T16:39:03.967Z,97100.91
2022-12-15T16:41:31.438Z,97093.91
2022-12-15T16:43:58.798Z,97100.81
2022-12-15T16:46:26.186Z,97103.09
2022-12-15T16:48:53.591Z,97106.06
2022-12-15T16:51:40.706Z,97107.47
2022-12-15T16:54:14.512Z,97108.16
2022-12-15T16:56:44.609Z,97109.28
2022-12-15T16:59:34.644Z,97107.59
2022-12-15T17:02:33.390Z,97108.78
2022-12-15T17:05:01.624Z,97104.28
2022-12-15T17:07:29.368Z,97094.91
2022-12-15T17:09:56.839Z,97094.13
2022-12-15T17:12:23.820Z,97089.16
2022-12-15T17:14:51.228Z,97082.97
2022-12-15T17:17:19.894Z,97074.28
2022-12-15T17:22:34.385Z,97069.22
2022-12-15T17:25:01.884Z,97075.41
2022-12-15T17:27:29.847Z,97070.50
2022-12-15T17:29:59.972Z,97071.38
2022-12-15T17:32:26.943Z,97062.91
2022-12-15T17:34:53.956Z,97064.69
2022-12-15T17:37:21.476Z,97057.31
2022-12-15T17:39:51.391Z,97048.84
2022-12-15T17:42:20.536Z,97051.63
2022-12-15T17:44:48.789Z,97048.41
2022-12-15T17:47:16.970Z,97048.47
2022-12-15T17:49:44.417Z,97055.09
2022-12-15T17:52:43.273Z,97048.50
2022-12-15T17:55:24.283Z,97060.97
2022-12-15T17:57:54.652Z,97054.06
2022-12-15T18:00:30.621Z,97050.19
2022-12-15T18:03:00.454Z,97053.53
2022-12-15T18:05:31.076Z,97053.81
2022-12-15T18:08:01.705Z,97050.84
2022-12-15T18:10:36.685Z,97053.91
2022-12-15T18:13:20.998Z,97055.78
2022-12-15T18:15:49.075Z,97048.84
2022-12-15T18:18:17.920Z,97062.03
2022-12-15T18:20:45.646Z,97060.34
2022-12-15T18:23:22.387Z,97067.25
2022-12-15T18:25:50.476Z,97053.41
2022-12-15T18:28:28.335Z,97050.53
2022-12-15T18:31:04.708Z,97055.13
2022-12-15T18:33:32.130Z,97051.91
2022-12-15T18:35:59.357Z,97058.91
2022-12-15T18:38:28.943Z,97053.63
2022-12-15T18:40:59.216Z,97052.91
2022-12-15T18:43:30.051Z,97057.13
2022-12-15T18:45:57.249Z,97050.09
2022-12-15T18:48:29.467Z,97050.59
2022-12-15T18:50:59.798Z,97049.66
2022-12-15T18:53:36.568Z,97046.75
2022-12-15T18:56:06.549Z,97049.41
2022-12-15T18:58:36.810Z,97044.25
2022-12-15T19:01:05.646Z,97030.59
2022-12-15T19:03:34.168Z,97027.72
2022-12-15T19:06:35.871Z,97029.28
2022-12-15T19:09:14.420Z,97018.25
2022-12-15T19:12:01.626Z,97022.25
2022-12-15T19:14:41.110Z,97019.56
2022-12-15T19:17:33.415Z,97018.66
2022-12-15T19:20:19.853Z,97011.38
2022-12-15T19:22:48.521Z,97015.28
2022-12-15T19:25:25.984Z,97009.66
2022-12-15T19:28:00.477Z,96993.16
2022-12-15T19:30:36.935Z,96985.81
2022-12-15T19:33:07.884Z,96983.13
2022-12-15T19:35:35.878Z,96976.16
2022-12-15T19:38:04.401Z,96973.81
2022-12-15T19:40:34.897Z,96969.56
2022-12-15T19:43:04.182Z,96968.06
2022-12-15T19:45:32.871Z,96973.25
2022-12-15T19:48:00.246Z,96973.34
2022-12-15T19:50:36.899Z,96964.81
2022-12-15T19:53:22.557Z,96975.78
2022-12-15T19:55:49.916Z,96976.47
2022-12-15T19:58:35.269Z,96981.28
2022-12-15T20:01:07.165Z,96984.91
2022-12-15T20:03:35.232Z,96986.50
2022-12-15T20:06:04.004Z,96986.41
2022-12-15T20:08:37.182Z,96988.13
2022-12-15T20:11:05.098Z,96989.53
2022-12-15T20:13:32.408Z,96992.16
2022-12-15T20:15:59.959Z,96992.66
2022-12-15T20:18:26.839Z,96994.88
2022-12-15T20:20:53.893Z,96998.00
2022-12-15T20:23:27.785Z,96986.41
2022-12-15T20:25:56.258Z,96994.88
2022-12-15T20:28:27.264Z,96993.13
2022-12-15T20:30:56.388Z,96994.53
2022-12-15T20:33:23.761Z,96997.78
2022-12-15T20:35:51.562Z,96992.91
2022-12-15T20:38:28.071Z,97012.00
2022-12-15T20:40:56.345Z,97008.22
2022-12-15T20:43:24.963Z,97015.38
2022-12-15T20:46:03.223Z,97020.81
2022-12-15T20:48:30.648Z,97016.97
2022-12-15T20:50:57.614Z,97016.09
2022-12-15T20:53:26.519Z,97024.34
2022-12-15T20:55:56.417Z,97010.06
2022-12-15T20:58:27.053Z,97020.88
2022-12-15T21:00:57.274Z,97025.38
2022-12-15T21:03:31.182Z,97023.41
2022-12-15T21:05:59.521Z,97016.72
2022-12-15T21:08:30.996Z,97015.84
2022-12-15T21:11:30.601Z,97013.59
2022-12-15T21:14:03.880Z,97020.69
2022-12-15T21:16:32.577Z,97011.59
2022-12-15T21:19:19.641Z,96998.75
2022-12-15T21:21:51.998Z,96993.63
2022-12-15T21:24:25.463Z,96994.53
2022-12-15T21:26:53.538Z,96993.78
2022-12-15T21:29:24.704Z,96990.66
2022-12-15T21:31:51.855Z,96975.06
2022-12-15T21:34:18.774Z,96984.09
2022-12-15T21:36:50.098Z,96984.03
2022-12-15T21:39:36.495Z,96975.88
2022-12-15T21:42:11.217Z,96977.53
2022-12-15T21:44:38.103Z,96969.00
2022-12-15T21:47:51.914Z,96966.00
2022-12-15T21:50:19.863Z,96979.81
2022-12-15T21:52:47.572Z,96972.16
2022-12-15T21:55:21.262Z,96975.06
2022-12-15T21:57:48.205Z,96972.97
2022-12-15T22:00:18.258Z,96983.84
2022-12-15T22:02:47.107Z,96980.03
2022-12-15T22:05:30.332Z,96982.75
2022-12-15T22:08:21.966Z,96994.69
2022-12-15T22:10:50.885Z,97004.72
2022-12-15T22:13:23.208Z,96995.41
2022-12-15T22:15:50.958Z,96996.97
2022-12-15T22:18:22.553Z,97004.09
2022-12-15T22:21:10.293Z,97002.25
2022-12-15T22:23:38.055Z,96999.06
2022-12-15T22:26:05.383Z,96996.00
2022-12-15T22:28:33.954Z,96998.53
2022-12-15T22:31:03.231Z,96996.22
2022-12-15T22:33:31.599Z,97001.66
2022-12-15T22:35:58.837Z,97012.91
2022-12-15T22:38:25.842Z,97015.00
2022-12-15T22:40:56.246Z,97017.00
2022-12-15T22:43:25.087Z,97016.25
2022-12-15T22:45:55.119Z,97018.78
2022-12-15T22:48:25.827Z,97031.59
2022-12-15T22:50:53.148Z,97011.69
2022-12-15T22:53:22.815Z,97026.75
2022-12-15T22:55:51.038Z,97027.34
2022-12-15T22:58:45.971Z,97024.03
2022-12-15T23:01:13.130Z,97021.53
2022-12-15T23:03:40.404Z,97023.31
2022-12-15T23:06:07.811Z,97024.53
2022-12-15T23:08:34.707Z,97026.31
2022-12-15T23:11:20.556Z,97018.81
2022-12-15T23:13:47.438Z,97014.66
2022-12-15T23:16:21.477Z,97025.78
2022-12-15T23:18:54.832Z,97024.16
2022-12-15T23:21:23.701Z,97030.69
2022-12-15T23:23:51.484Z,97024.97
2022-12-15T23:26:22.848Z,97024.81
2022-12-15T23:28:50.040Z,97026.16
2022-12-15T23:31:18.024Z,97022.91
2022-12-15T23:33:45.173Z,97024.28
2022-12-15T23:36:12.858Z,97016.72
2022-12-15T23:38:40.628Z,97013.28
2022-12-15T23:41:08.054Z,97018.41
2022-12-15T23:43:35.542Z,97023.28
2022-12-15T23:46:06.262Z,97017.56
2022-12-15T23:48:41.506Z,97011.63
2022-12-15T23:51:17.731Z,97018.91
2022-12-15T23:53:46.473Z,97018.31
2022-12-15T23:56:23.576Z,97018.22
2022-12-15T23:58:59.070Z,97015.94
